Time;durP1;ratioP1;P1;durP2;ratioP2;P2;SDS_P1;SDS_P2;PMS_P1;PMS_P2;Temp;Humidity;BMP_temperature;BMP_pressure;BME280_temperature;BME280_humidity;BME280_pressure;Samples;Min_cycle;Max_cycle;Signal;HPM_P1;HPM_P2
2022/12/12 00:01:32;;;;;;;7.43;6.30;;;;;;;3.60;100.00;62371.50;4985945;28;20515;-72
2022/12/12 00:04:00;;;;;;;10.98;6.90;;;;;;;3.65;100.00;62381.66;4986509;28;20204;-72
2022/12/12 00:06:27;;;;;;;13.32;7.72;;;;;;;3.66;100.00;62375.16;4986214;28;20290;-74
2022/12/12 00:08:55;;;;;;;10.00;6.72;;;;;;;3.55;100.00;62369.88;4988682;28;20247;-73
2022/12/12 00:11:23;;;;;;;9.93;7.38;;;;;;;3.59;100.00;62370.47;4995878;28;20247;-74
2022/12/12 00:13:53;;;;;;;14.48;8.73;;;;;;;3.58;100.00;62369.94;4986411;28;20200;-73
2022/12/12 00:16:20;;;;;;;8.00;6.68;;;;;;;3.46;100.00;62358.13;4986631;28;20224;-74
2022/12/12 00:18:48;;;;;;;9.65;6.90;;;;;;;3.45;100.00;62352.06;4985254;28;20203;-74
2022/12/12 00:21:17;;;;;;;5.60;5.00;;;;;;;3.62;100.00;62371.03;4985882;28;20224;-73
2022/12/12 00:23:44;;;;;;;6.75;4.72;;;;;;;3.60;100.00;62368.97;4987011;28;20200;-74
2022/12/12 00:26:17;;;;;;;5.38;4.78;;;;;;;3.72;100.00;62381.31;4985954;28;20230;-74
2022/12/12 00:28:45;;;;;;;6.13;5.32;;;;;;;3.67;100.00;62378.69;4986336;28;20364;-74
2022/12/12 00:31:14;;;;;;;4.38;3.95;;;;;;;3.67;100.00;62376.19;4986089;28;20252;-74
2022/12/12 00:33:42;;;;;;;8.68;4.60;;;;;;;3.67;100.00;62373.66;4986667;28;20207;-73
2022/12/12 00:36:09;;;;;;;8.88;4.68;;;;;;;3.69;100.00;62380.75;4986152;28;20572;-73
2022/12/12 00:38:36;;;;;;;5.90;5.05;;;;;;;3.63;100.00;62372.06;4986962;28;20247;-73
2022/12/12 00:41:03;;;;;;;6.00;5.40;;;;;;;3.57;100.00;62366.41;4985296;28;20224;-73
2022/12/12 00:43:30;;;;;;;9.35;6.32;;;;;;;3.37;100.00;62348.34;4985742;28;20208;-72
2022/12/12 00:45:58;;;;;;;9.85;6.38;;;;;;;3.23;100.00;62331.97;4986220;28;20285;-73
2022/12/12 00:48:27;;;;;;;7.88;7.00;;;;;;;3.27;100.00;62340.59;4986852;28;20485;-73
2022/12/12 00:50:55;;;;;;;11.43;6.72;;;;;;;3.08;100.00;62316.56;4987796;28;20227;-73
2022/12/12 00:53:22;;;;;;;8.55;6.57;;;;;;;3.01;100.00;62308.84;4986172;28;20200;-73
2022/12/12 00:55:55;;;;;;;5.90;5.40;;;;;;;3.08;100.00;62316.56;4986583;28;20223;-73
2022/12/12 00:58:22;;;;;;;7.65;6.00;;;;;;;2.97;100.00;62307.75;4986190;28;20556;-74
2022/12/12 01:00:49;;;;;;;8.82;6.30;;;;;;;3.08;100.00;62318.53;4984925;28;20419;-73
2022/12/12 01:03:16;;;;;;;9.23;6.60;;;;;;;3.11;100.00;62319.09;4985173;28;20247;-73
2022/12/12 01:05:44;;;;;;;6.45;5.75;;;;;;;3.20;100.00;62333.91;4985907;28;20339;-72
2022/12/12 01:08:11;;;;;;;8.23;6.68;;;;;;;3.27;100.00;62333.56;4986122;28;20388;-73
2022/12/12 01:10:38;;;;;;;8.55;5.72;;;;;;;3.26;100.00;62337.56;4985633;28;20274;-72
2022/12/12 01:13:05;;;;;;;6.75;5.43;;;;;;;3.25;100.00;62341.56;4985796;28;20231;-73
2022/12/12 01:15:32;;;;;;;6.63;5.97;;;;;;;3.32;100.00;62340.69;4984326;28;20627;-73
2022/12/12 01:17:59;;;;;;;6.60;6.00;;;;;;;3.37;100.00;62345.84;4985483;28;20229;-73
2022/12/12 01:20:28;;;;;;;8.48;6.35;;;;;;;3.31;100.00;62342.19;4985590;28;20243;-74
2022/12/12 01:22:56;;;;;;;6.72;5.80;;;;;;;3.37;100.00;62343.84;4986080;28;20407;-73
2022/12/12 01:25:24;;;;;;;6.13;5.45;;;;;;;3.33;100.00;62341.75;4984465;28;20219;-73
2022/12/12 01:27:51;;;;;;;7.40;5.78;;;;;;;3.15;100.00;62328.25;4985339;28;20477;-77
2022/12/12 01:30:21;;;;;;;6.88;5.63;;;;;;;3.25;100.00;62333.50;4985399;28;20425;-73
2022/12/12 01:32:49;;;;;;;6.38;5.30;;;;;;;3.32;100.00;62341.22;4986968;28;20257;-74
2022/12/12 01:35:16;;;;;;;9.48;5.30;;;;;;;3.29;100.00;62335.63;4984107;28;20215;-73
2022/12/12 01:37:43;;;;;;;7.97;6.05;;;;;;;3.33;100.00;62341.75;4985423;28;20540;-73
2022/12/12 01:40:15;;;;;;;13.05;6.07;;;;;;;3.36;100.00;62350.38;4985586;28;20455;-74
2022/12/12 01:42:42;;;;;;;6.80;5.60;;;;;;;3.29;100.00;62337.63;4985012;28;20489;-76
2022/12/12 01:45:42;;;;;;;7.15;5.97;;;;;;;3.16;100.00;62327.28;4987603;28;20263;-75
2022/12/12 01:48:09;;;;;;;7.15;5.70;;;;;;;3.24;100.00;62335.00;4968202;28;20204;-74
2022/12/12 01:50:36;;;;;;;8.13;6.03;;;;;;;3.10;100.00;62321.13;4966173;29;20224;-73
2022/12/12 01:53:03;;;;;;;8.70;5.60;;;;;;;3.11;100.00;62322.16;4976366;28;20231;-73
2022/12/12 01:55:32;;;;;;;7.32;6.05;;;;;;;3.18;100.00;62331.34;4984128;28;20219;-74
2022/12/12 01:57:59;;;;;;;6.28;5.55;;;;;;;3.15;100.00;62326.25;4984794;28;20521;-73
2022/12/12 02:00:26;;;;;;;61.53;11.85;;;;;;;3.14;100.00;62324.72;4985113;28;20284;-72
2022/12/12 02:02:54;;;;;;;113.55;16.85;;;;;;;3.00;100.00;62312.84;4984622;28;20204;-74
2022/12/12 02:05:26;;;;;;;273.85;25.67;;;;;;;2.99;100.00;62306.78;4984612;28;20243;-73
2022/12/12 02:07:54;;;;;;;70.43;16.77;;;;;;;2.85;100.00;62295.41;4985565;28;20200;-73
2022/12/12 02:10:21;;;;;;;28.75;15.27;;;;;;;2.91;100.00;62298.56;4984147;28;20205;-73
2022/12/12 02:12:49;;;;;;;110.97;20.23;;;;;;;2.99;100.00;62309.28;4984534;28;20235;-74
2022/12/12 02:15:17;;;;;;;60.38;17.23;;;;;;;3.04;100.00;62316.94;4985025;28;20204;-73
2022/12/12 02:18:01;;;;;;;206.15;22.92;;;;;;;3.10;100.00;62318.09;4984484;28;20200;-74
2022/12/12 02:20:44;;;;;;;23.90;12.90;;;;;;;3.13;100.00;62321.69;4984607;28;20262;-73
2022/12/12 02:23:38;;;;;;;35.40;15.68;;;;;;;3.10;100.00;62323.63;4984040;28;20204;-73
2022/12/12 02:26:47;;;;;;;42.90;14.60;;;;;;;3.02;100.00;62307.84;4983928;28;20224;-74
2022/12/12 02:29:53;;;;;;;38.40;15.90;;;;;;;2.92;100.00;62300.09;4984609;28;20250;-74
2022/12/12 02:32:26;;;;;;;29.98;14.70;;;;;;;3.02;100.00;62314.91;4983834;28;20238;-73
2022/12/12 02:35:03;;;;;;;49.88;16.00;;;;;;;3.08;100.00;62319.06;4984907;28;20196;-73
2022/12/12 02:37:35;;;;;;;41.38;16.13;;;;;;;3.10;100.00;62315.56;4983234;28;20200;-73
2022/12/12 02:40:13;;;;;;;51.47;16.00;;;;;;;3.11;100.00;62321.63;4984752;28;20245;-73
2022/12/12 02:42:47;;;;;;;157.07;22.13;;;;;;;2.93;100.00;62298.63;4984764;28;20207;-73
2022/12/12 02:45:20;;;;;;;141.65;21.08;;;;;;;2.94;100.00;62299.13;4984440;28;20192;-74
2022/12/12 02:47:55;;;;;;;28.13;15.60;;;;;;;2.93;100.00;62301.13;4984279;28;20215;-73
2022/12/12 02:50:25;;;;;;;124.28;17.83;;;;;;;2.93;100.00;62300.63;4983860;28;20278;-73
2022/12/12 02:52:53;;;;;;;44.63;16.02;;;;;;;3.01;100.00;62309.34;4984506;28;20243;-73
2022/12/12 02:55:20;;;;;;;91.32;16.55;;;;;;;3.05;100.00;62312.94;4984048;28;20204;-74
2022/12/12 02:57:48;;;;;;;31.88;14.43;;;;;;;3.07;100.00;62315.00;4983449;28;20320;-72
2022/12/12 03:00:17;;;;;;;128.63;19.25;;;;;;;2.86;100.00;62296.47;4984951;28;20195;-74
2022/12/12 03:09:12;;;;;;;23.02;12.15;;;;;;;3.07;100.00;62315.00;4984118;28;20239;-73
2022/12/12 03:11:57;;;;;;;40.08;13.70;;;;;;;2.96;100.00;62298.66;4984508;28;20274;-73
2022/12/12 03:14:31;;;;;;;17.80;10.48;;;;;;;2.89;100.00;62294.50;4983666;28;20218;-73
2022/12/12 03:17:05;;;;;;;31.35;12.63;;;;;;;2.86;100.00;62291.44;4983158;28;20220;-73
2022/12/12 03:19:43;;;;;;;23.75;11.85;;;;;;;2.95;100.00;62308.22;4985010;28;20246;-73
2022/12/12 03:22:15;;;;;;;21.98;12.23;;;;;;;2.93;100.00;62293.59;4984058;28;20235;-72
2022/12/12 03:24:50;;;;;;;20.00;12.05;;;;;;;2.82;100.00;62294.84;4984066;28;20261;-74
2022/12/12 03:27:22;;;;;;;34.70;14.45;;;;;;;2.76;100.00;62286.16;4984835;28;20227;-73
2022/12/12 03:29:54;;;;;;;30.00;13.30;;;;;;;2.73;100.00;62277.53;4986797;28;20199;-73
2022/12/12 03:32:26;;;;;;;28.20;15.35;;;;;;;2.79;100.00;62291.25;4987216;28;20330;-74
2022/12/12 03:35:00;;;;;;;38.67;13.90;;;;;;;2.75;100.00;62282.63;4986860;28;20215;-73
2022/12/12 03:37:31;;;;;;;21.20;12.13;;;;;;;2.59;100.00;62263.19;4988821;28;20399;-73
2022/12/12 03:40:01;;;;;;;23.25;11.23;;;;;;;2.57;100.00;62261.13;4988152;28;20188;-73
2022/12/12 03:42:32;;;;;;;28.27;11.55;;;;;;;2.60;100.00;62266.72;4986688;28;20204;-73
2022/12/12 03:45:05;;;;;;;28.92;10.15;;;;;;;2.58;100.00;62269.69;4986499;28;20203;-73
2022/12/12 03:47:38;;;;;;;14.60;9.35;;;;;;;2.40;100.00;62249.19;4987616;28;20196;-74
2022/12/12 03:50:12;;;;;;;15.05;9.05;;;;;;;2.37;100.00;62241.09;4987060;28;20305;-73
2022/12/12 03:52:43;;;;;;;12.90;8.68;;;;;;;2.38;100.00;62244.13;4986689;28;20242;-74
2022/12/12 03:55:15;;;;;;;12.65;7.85;;;;;;;2.38;100.00;62239.59;4987058;28;20379;-73
2022/12/12 03:57:46;;;;;;;11.18;7.97;;;;;;;2.35;100.00;62242.06;4987553;28;20200;-74
2022/12/12 04:00:15;;;;;;;8.70;6.25;;;;;;;2.34;100.00;62243.03;4986342;28;20256;-73
2022/12/12 04:02:50;;;;;;;10.48;6.88;;;;;;;2.29;100.00;62237.91;4986442;28;20200;-73
2022/12/12 04:05:24;;;;;;;7.55;6.18;;;;;;;2.34;100.00;62243.03;4987904;28;20540;-74
2022/12/12 04:07:58;;;;;;;7.05;5.97;;;;;;;2.35;100.00;62239.53;4986251;28;20227;-73
2022/12/12 04:13:22;;;;;;;6.35;5.53;;;;;;;2.30;100.00;62234.41;4987203;28;20234;-73
2022/12/12 04:15:57;;;;;;;14.68;7.05;;;;;;;2.33;100.00;62236.97;4987173;28;20420;-72
2022/12/12 04:18:36;;;;;;;11.00;6.43;;;;;;;2.24;100.00;62230.25;4987080;28;20222;-75
2022/12/12 04:24:06;;;;;;;11.93;6.75;;;;;;;2.28;100.00;62236.84;4986754;28;20191;-74
2022/12/12 04:26:40;;;;;;;9.88;6.68;;;;;;;2.26;100.00;62232.81;4985633;28;20418;-75
2022/12/12 04:29:15;;;;;;;9.23;6.22;;;;;;;2.09;100.00;62215.34;4986177;28;20629;-74
2022/12/12 04:31:47;;;;;;;10.55;8.50;;;;;;;1.92;100.00;62200.41;4987743;28;20556;-73
2022/12/12 04:34:20;;;;;;;11.20;7.25;;;;;;;1.94;100.00;62197.44;4986774;28;20215;-72
2022/12/12 04:36:50;;;;;;;11.68;8.07;;;;;;;1.93;100.00;62200.94;4985973;28;20251;-74
2022/12/12 04:39:19;;;;;;;13.18;8.40;;;;;;;1.94;100.00;62206.97;4986120;28;20425;-73
2022/12/12 04:41:50;;;;;;;12.30;8.23;;;;;;;2.00;100.00;62205.59;4986500;28;20315;-73
2022/12/12 04:44:20;;;;;;;12.05;7.75;;;;;;;2.02;100.00;62210.66;4986404;28;20204;-74
2022/12/12 04:46:53;;;;;;;11.98;8.85;;;;;;;1.85;100.00;62192.69;4987186;28;20219;-74
2022/12/12 04:49:25;;;;;;;16.35;10.15;;;;;;;1.96;100.00;62201.50;4986685;28;20276;-74
2022/12/12 04:51:58;;;;;;;15.98;10.20;;;;;;;1.90;100.00;62193.34;4985241;28;20366;-75
2022/12/12 04:54:32;;;;;;;12.68;9.65;;;;;;;1.88;100.00;62191.28;4986215;28;20211;-73
2022/12/12 04:57:02;;;;;;;12.85;9.57;;;;;;;1.89;100.00;62192.31;4985900;28;20222;-73
2022/12/12 04:59:30;;;;;;;15.20;8.50;;;;;;;1.87;100.00;62192.25;4985865;28;20247;-74
2022/12/12 05:02:04;;;;;;;13.23;9.43;;;;;;;1.89;100.00;62191.78;4984322;28;20232;-73
2022/12/12 05:04:38;;;;;;;12.35;7.85;;;;;;;1.87;100.00;62200.28;4986201;28;20235;-74
2022/12/12 05:07:10;;;;;;;11.15;7.47;;;;;;;1.81;100.00;62186.09;4986190;28;20274;-74
2022/12/12 05:09:38;;;;;;;9.90;7.53;;;;;;;1.84;100.00;62189.69;4985604;28;20203;-75
2022/12/12 05:12:05;;;;;;;15.00;9.70;;;;;;;1.82;100.00;62190.16;4984617;28;20234;-75
2022/12/12 05:14:32;;;;;;;12.85;8.70;;;;;;;1.85;100.00;62195.72;4986264;28;20501;-74
2022/12/12 05:17:05;;;;;;;15.98;8.55;;;;;;;1.85;100.00;62190.72;4984315;28;20228;-74
2022/12/12 05:19:32;;;;;;;11.00;8.55;;;;;;;1.90;100.00;62197.84;4984063;28;20200;-75
2022/12/12 05:21:59;;;;;;;11.18;7.05;;;;;;;1.87;100.00;62197.78;4988266;28;20219;-74
2022/12/12 05:24:30;;;;;;;11.02;7.82;;;;;;;1.75;100.00;62179.94;4983768;28;20203;-74
2022/12/12 05:26:58;;;;;;;12.02;8.02;;;;;;;1.87;100.00;62194.75;4992786;28;20247;-74
2022/12/12 05:29:25;;;;;;;10.43;7.68;;;;;;;1.82;100.00;62189.63;4994550;28;20360;-74
2022/12/12 05:31:52;;;;;;;13.30;9.07;;;;;;;1.81;100.00;62186.09;4986782;28;20275;-74
2022/12/12 05:34:19;;;;;;;14.60;9.05;;;;;;;1.85;100.00;62192.69;4984867;28;20232;-76
2022/12/12 05:36:46;;;;;;;13.48;9.43;;;;;;;1.91;100.00;62196.38;4990212;28;20223;-74
2022/12/12 05:39:13;;;;;;;11.57;7.75;;;;;;;2.01;100.00;62207.16;5005403;28;20301;-74
2022/12/12 05:41:42;;;;;;;9.60;6.82;;;;;;;2.04;100.00;62212.72;5005015;28;20219;-74
2022/12/12 05:44:09;;;;;;;9.18;7.28;;;;;;;2.02;100.00;62208.16;4993762;28;20249;-76
2022/12/12 05:46:36;;;;;;;7.78;6.30;;;;;;;2.09;100.00;62215.34;4985479;28;20609;-73
2022/12/12 05:49:03;;;;;;;11.07;7.57;;;;;;;2.11;100.00;62219.41;4985870;28;20203;-74
2022/12/12 05:51:29;;;;;;;9.68;7.88;;;;;;;2.23;100.00;62231.72;4983951;28;20219;-75
2022/12/12 05:53:56;;;;;;;11.02;7.72;;;;;;;2.35;100.00;62244.56;4983911;28;20238;-75
2022/12/12 05:56:23;;;;;;;9.73;7.85;;;;;;;2.43;100.00;62254.28;4985729;28;20228;-75
2022/12/12 05:58:51;;;;;;;15.48;9.10;;;;;;;2.50;100.00;62258.94;4984887;28;20394;-75
2022/12/12 06:01:18;;;;;;;15.77;10.25;;;;;;;2.58;100.00;62267.69;4984135;28;20417;-75
2022/12/12 06:03:45;;;;;;;14.32;10.55;;;;;;;2.55;100.00;62262.09;4984710;28;20202;-76
2022/12/12 06:06:12;;;;;;;13.52;8.55;;;;;;;2.52;100.00;62261.50;4985382;28;20236;-75
2022/12/12 06:08:39;;;;;;;14.98;8.65;;;;;;;2.38;100.00;62247.16;4999658;28;20204;-76
2022/12/12 06:11:07;;;;;;;13.93;10.07;;;;;;;2.34;100.00;62241.03;4986812;28;20231;-76
2022/12/12 06:13:34;;;;;;;15.13;9.55;;;;;;;2.38;100.00;62245.13;4985241;28;20244;-75
2022/12/12 06:16:07;;;;;;;18.48;12.52;;;;;;;2.43;100.00;62246.72;4986883;28;20228;-75
2022/12/12 06:18:34;;;;;;;18.60;13.38;;;;;;;2.50;100.00;62259.47;4984097;28;20234;-75
2022/12/12 06:21:06;;;;;;;18.45;12.95;;;;;;;2.60;100.00;62269.22;4990525;28;20227;-75
2022/12/12 06:23:36;;;;;;;20.38;12.40;;;;;;;2.65;100.00;62272.38;4988567;28;20208;-75
2022/12/12 06:26:03;;;;;;;17.65;11.82;;;;;;;2.49;100.00;62255.41;4983890;28;20220;-75
2022/12/12 06:28:30;;;;;;;20.33;13.45;;;;;;;2.59;100.00;62263.19;4984745;28;20251;-75
2022/12/12 06:30:57;;;;;;;21.48;14.70;;;;;;;2.48;100.00;62254.38;4988547;28;20462;-75
2022/12/12 06:33:27;;;;;;;27.88;15.50;;;;;;;2.55;100.00;62264.59;4965200;28;20232;-75
2022/12/12 06:36:01;;;;;;;26.23;16.05;;;;;;;2.56;100.00;62265.63;4972518;28;20395;-74
2022/12/12 06:38:28;;;;;;;27.60;16.50;;;;;;;2.65;100.00;62274.88;4984780;28;20231;-74
2022/12/12 06:40:56;;;;;;;28.55;17.52;;;;;;;2.61;100.00;62267.72;4985095;28;20251;-77
2022/12/12 06:43:26;;;;;;;26.45;16.63;;;;;;;2.62;100.00;62269.28;4984079;28;20200;-75
2022/12/12 06:45:53;;;;;;;24.25;16.27;;;;;;;2.62;100.00;62271.81;4984842;28;20262;-76
2022/12/12 06:48:20;;;;;;;25.80;17.88;;;;;;;2.43;100.00;62252.28;4975724;28;20263;-75
2022/12/12 06:50:48;;;;;;;28.73;18.02;;;;;;;2.54;100.00;62258.03;4965041;28;20458;-75
2022/12/12 06:53:15;;;;;;;27.83;16.60;;;;;;;2.63;100.00;62275.34;4977117;28;20242;-76
2022/12/12 06:55:43;;;;;;;31.42;16.73;;;;;;;2.67;100.00;62268.88;4984953;28;20223;-75
2022/12/12 06:58:10;;;;;;;30.38;17.25;;;;;;;2.77;100.00;62281.66;4984802;28;20203;-74
2022/12/12 07:00:37;;;;;;;31.90;18.42;;;;;;;2.87;100.00;62297.47;4984814;28;20554;-74
2022/12/12 07:03:05;;;;;;;37.15;20.70;;;;;;;2.98;100.00;62303.75;4986081;28;20384;-74
2022/12/12 07:05:32;;;;;;;38.88;20.00;;;;;;;2.99;100.00;62312.31;4988078;28;20223;-75
2022/12/12 07:08:01;;;;;;;39.78;21.38;;;;;;;2.78;100.00;62288.22;5001035;28;20255;-75
2022/12/12 07:10:29;;;;;;;38.38;19.98;;;;;;;2.86;100.00;62295.94;4994605;28;20287;-76
2022/12/12 07:12:57;;;;;;;36.33;21.35;;;;;;;3.06;100.00;62314.50;4988436;28;20425;-74
2022/12/12 07:15:24;;;;;;;41.15;21.60;;;;;;;2.90;100.00;62300.06;4979386;28;20467;-74
2022/12/12 07:17:53;;;;;;;42.08;22.75;;;;;;;3.03;100.00;62310.91;4989127;28;20377;-75
2022/12/12 07:20:20;;;;;;;41.47;22.13;;;;;;;3.03;100.00;62313.94;4986948;28;20265;-75
2022/12/12 07:22:47;;;;;;;39.95;21.73;;;;;;;3.15;100.00;62323.22;4989197;28;20489;-75
2022/12/12 07:25:16;;;;;;;38.30;20.45;;;;;;;3.36;100.00;62347.84;4998689;28;20199;-75
2022/12/12 07:27:42;;;;;;;37.40;20.73;;;;;;;3.45;100.00;62354.56;4990431;28;20497;-76
2022/12/12 07:30:11;;;;;;;34.28;21.10;;;;;;;3.54;100.00;62363.31;4982771;28;20201;-75
2022/12/12 07:32:38;;;;;;;37.13;21.10;;;;;;;3.58;100.00;62369.94;4969858;28;20219;-74
2022/12/12 07:35:06;;;;;;;28.80;19.08;;;;;;;3.72;100.00;62384.34;5011595;28;20199;-76
2022/12/12 07:37:33;;;;;;;33.20;20.02;;;;;;;3.68;100.00;62377.72;5001476;28;20208;-76
2022/12/12 07:40:00;;;;;;;34.88;20.42;;;;;;;3.88;100.00;62395.78;4987679;28;20204;-75
2022/12/12 07:42:28;;;;;;;38.13;22.25;;;;;;;3.98;100.00;62408.06;4987445;28;20235;-75
2022/12/12 07:44:55;;;;;;;35.50;21.13;;;;;;;4.03;100.00;62415.72;4987718;28;20481;-75
2022/12/12 07:47:22;;;;;;;37.00;20.45;;;;;;;3.73;100.00;62384.88;4987805;28;20266;-75
2022/12/12 07:49:49;;;;;;;38.47;20.45;;;;;;;3.46;100.00;62353.09;4989019;28;20209;-75
2022/12/12 07:52:15;;;;;;;33.78;20.52;;;;;;;3.58;100.00;62369.44;4987772;28;20247;-75
2022/12/12 07:54:42;;;;;;;34.35;20.33;;;;;;;3.32;100.00;62340.69;4987011;28;20552;-76
2022/12/12 07:57:09;;;;;;;37.13;20.45;;;;;;;3.63;100.00;62372.06;4989235;28;20226;-76
2022/12/12 07:59:38;;;;;;;32.80;20.15;;;;;;;3.80;100.00;62390.06;4987945;28;20192;-76
2022/12/12 08:02:06;;;;;;;35.33;19.52;;;;;;;4.13;100.00;62426.53;4986766;28;20489;-77
2022/12/12 08:04:33;;;;;;;31.80;18.40;;;;;;;3.78;100.00;62388.00;4987171;28;20242;-77
2022/12/12 08:07:00;;;;;;;31.83;19.75;;;;;;;3.91;100.00;62403.91;4987644;28;20597;-74
2022/12/12 08:09:27;;;;;;;33.60;20.40;;;;;;;4.02;100.00;62412.19;4987581;28;20259;-75
2022/12/12 08:11:55;;;;;;;28.73;17.58;;;;;;;3.95;100.00;62407.50;4990547;28;20239;-75
2022/12/12 08:14:22;;;;;;;35.30;20.17;;;;;;;3.89;100.00;62398.81;4969811;28;20441;-76
2022/12/12 08:16:51;;;;;;;35.95;21.45;;;;;;;3.65;100.00;62374.63;4988151;28;20224;-75
2022/12/12 08:19:18;;;;;;;42.22;23.77;;;;;;;4.01;100.00;62411.16;4986901;28;20206;-77
2022/12/12 08:21:46;;;;;;;37.63;22.63;;;;;;;3.86;100.00;62398.75;4985653;28;20288;-75
2022/12/12 08:24:15;;;;;;;41.42;24.33;;;;;;;4.12;100.00;62422.47;4987870;28;20204;-76
2022/12/12 08:26:43;;;;;;;39.80;24.95;;;;;;;4.05;100.00;62415.25;4987531;28;20224;-76
2022/12/12 08:29:10;;;;;;;46.63;26.75;;;;;;;4.14;100.00;62429.56;4987088;28;20207;-75
2022/12/12 08:31:39;;;;;;;45.88;25.83;;;;;;;4.33;100.00;62442.06;4986067;28;20333;-76
2022/12/12 08:34:07;;;;;;;43.78;26.13;;;;;;;4.40;100.00;62448.75;4988345;28;20298;-75
2022/12/12 08:36:35;;;;;;;49.97;26.60;;;;;;;4.56;100.00;62467.75;4987999;28;20279;-76
2022/12/12 08:39:05;;;;;;;45.97;26.20;;;;;;;4.05;100.00;62412.75;4986466;28;20200;-76
2022/12/12 08:41:34;;;;;;;48.25;27.20;;;;;;;3.99;100.00;62409.59;4987817;28;20222;-75
2022/12/12 08:44:01;;;;;;;48.90;27.60;;;;;;;3.95;100.00;62407.50;4987364;28;20200;-74
2022/12/12 08:46:28;;;;;;;46.58;27.40;;;;;;;4.24;100.00;62432.81;5001762;28;20226;-75
2022/12/12 08:48:55;;;;;;;46.35;28.17;;;;;;;4.45;100.00;62454.41;5006825;28;20206;-75
2022/12/12 08:51:24;;;;;;;52.47;27.80;;;;;;;4.71;100.00;62486.22;4994075;28;20247;-74
2022/12/12 08:53:52;;;;;;;54.42;28.38;;;;;;;4.49;100.00;62458.00;4986800;28;20239;-75
2022/12/12 08:56:20;;;;;;;53.78;28.90;;;;;;;4.30;100.00;62438.97;4993796;28;20239;-75
2022/12/12 08:58:50;;;;;;;43.38;25.00;;;;;;;4.54;100.00;62473.75;4991047;28;20204;-75
2022/12/12 09:01:20;;;;;;;50.28;28.48;;;;;;;4.17;100.00;62428.13;4981615;28;20221;-74
2022/12/12 09:03:47;;;;;;;48.65;29.42;;;;;;;4.25;100.00;62440.88;4980343;28;20483;-75
2022/12/12 09:06:15;;;;;;;49.30;27.20;;;;;;;4.38;100.00;62451.75;4987576;28;20223;-76
2022/12/12 09:08:44;;;;;;;48.20;27.38;;;;;;;4.34;100.00;62445.09;4986669;28;20520;-76
2022/12/12 09:11:11;;;;;;;47.03;26.08;;;;;;;4.10;100.00;62422.94;4985137;28;20436;-76
2022/12/12 09:13:39;;;;;;;51.08;28.52;;;;;;;3.91;100.00;62403.38;4986285;28;20227;-76
2022/12/12 09:16:10;;;;;;;52.10;27.95;;;;;;;4.14;100.00;62424.53;4985326;28;20429;-73
2022/12/12 09:18:38;;;;;;;51.38;27.88;;;;;;;4.24;100.00;62437.34;4986107;28;20204;-74
2022/12/12 09:21:08;;;;;;;51.13;28.15;;;;;;;4.54;100.00;62468.19;4989723;28;20224;-74
2022/12/12 09:23:35;;;;;;;48.45;28.50;;;;;;;4.61;100.00;62473.41;4998251;28;20195;-75
2022/12/12 09:26:07;;;;;;;59.95;30.15;;;;;;;4.85;100.00;62494.56;4985145;28;20220;-74
2022/12/12 09:28:34;;;;;;;53.10;30.65;;;;;;;5.06;100.00;62518.69;4985232;28;20211;-74
2022/12/12 09:31:04;;;;;;;57.85;31.48;;;;;;;5.29;100.00;62542.91;4984955;28;20539;-74
2022/12/12 09:33:31;;;;;;;54.65;33.03;;;;;;;5.26;100.00;62539.81;4986124;28;20227;-74
2022/12/12 09:35:59;;;;;;;55.58;31.30;;;;;;;5.38;100.00;62552.19;5000538;28;20255;-75
2022/12/12 09:38:27;;;;;;;56.00;31.88;;;;;;;5.16;100.00;62529.00;5000354;28;20371;-74
2022/12/12 09:40:58;;;;;;;60.50;33.72;;;;;;;5.46;100.00;62562.44;4990886;28;20278;-74
2022/12/12 09:43:33;;;;;;;52.55;32.28;;;;;;;5.58;100.00;62569.75;4999499;28;20188;-74
2022/12/12 09:46:03;;;;;;;58.67;32.30;;;;;;;5.89;100.00;62604.22;4975072;28;20223;-74
2022/12/12 09:48:38;;;;;;;60.40;34.13;;;;;;;5.93;100.00;62612.88;4985719;28;20203;-74
2022/12/12 09:51:06;;;;;;;61.20;35.03;;;;;;;5.98;100.00;62616.03;4982614;28;20215;-75
2022/12/12 09:53:33;;;;;;;51.65;29.73;;;;;;;5.85;100.00;62602.63;4980885;28;20203;-75
2022/12/12 09:56:10;;;;;;;45.92;28.25;;;;;;;6.06;100.00;62623.78;4984046;28;20220;-75
2022/12/12 09:58:46;;;;;;;48.25;29.48;;;;;;;6.26;100.00;62641.84;4986443;28;20196;-75
2022/12/12 10:01:38;;;;;;;47.40;26.52;;;;;;;6.30;100.00;62646.47;4983865;28;20243;-74
2022/12/12 10:04:23;;;;;;;34.08;20.70;;;;;;;6.17;100.00;62632.56;4967436;28;20204;-75
2022/12/12 10:07:00;;;;;;;22.85;13.60;;;;;;;6.09;100.00;62622.31;4986368;28;20220;-75
2022/12/12 10:09:48;;;;;;;34.33;21.42;;;;;;;6.03;100.00;62621.19;4985192;28;20199;-76
2022/12/12 10:12:17;;;;;;;35.72;21.25;;;;;;;6.04;100.00;62619.19;4985017;28;20231;-75
2022/12/12 10:14:49;;;;;;;34.75;21.30;;;;;;;6.27;100.00;62640.88;4984931;28;20238;-74
2022/12/12 10:17:19;;;;;;;40.50;20.55;;;;;;;6.42;100.00;62658.34;4986905;28;20254;-74
2022/12/12 10:19:51;;;;;;;38.80;21.25;;;;;;;6.55;100.00;62671.75;4987674;28;20212;-75
2022/12/12 10:22:29;;;;;;;34.05;19.75;;;;;;;6.21;100.00;62636.69;4985604;28;20235;-75
2022/12/12 10:25:03;;;;;;;37.03;20.17;;;;;;;6.48;100.00;62665.06;4984795;28;20242;-75
2022/12/12 10:27:30;;;;;;;36.15;22.15;;;;;;;6.81;100.00;62699.09;4983084;28;20266;-75
2022/12/12 10:30:06;;;;;;;28.92;16.90;;;;;;;6.82;100.00;62700.13;4984949;28;20516;-75
2022/12/12 10:32:49;;;;;;;22.88;15.35;;;;;;;7.04;100.00;62722.28;4985149;28;20195;-75
2022/12/12 10:35:22;;;;;;;22.42;10.63;;;;;;;7.08;100.00;62726.41;4984317;28;20235;-76
2022/12/12 10:38:01;;;;;;;22.63;12.30;;;;;;;7.26;100.00;62747.00;4985227;28;20239;-75
2022/12/12 10:40:49;;;;;;;20.40;11.45;;;;;;;7.42;100.00;62761.50;5002497;28;20229;-75
2022/12/12 10:43:21;;;;;;;20.63;11.95;;;;;;;6.89;100.00;62706.81;4985776;28;20188;-76
2022/12/12 10:46:11;;;;;;;24.92;17.23;;;;;;;6.96;100.00;62714.56;4984492;28;20446;-74
2022/12/12 10:48:39;;;;;;;24.65;14.93;;;;;;;7.04;100.00;62725.34;4982697;28;20208;-75
2022/12/12 10:51:10;;;;;;;15.25;9.38;;;;;;;7.39;100.00;62758.41;4983946;28;20282;-75
2022/12/12 10:53:38;;;;;;;10.23;6.28;;;;;;;7.23;100.00;62744.41;4984797;28;20200;-75
2022/12/12 10:56:09;;;;;;;15.50;8.68;;;;;;;7.51;100.00;62768.25;4983303;28;20425;-74
2022/12/12 10:58:37;;;;;;;24.13;14.30;;;;;;;8.01;100.00;62824.41;4984429;28;20207;-74
2022/12/12 11:01:17;;;;;;;25.38;17.67;;;;;;;7.84;100.00;62809.94;4984282;28;20236;-75
2022/12/12 11:03:47;;;;;;;26.63;17.02;;;;;;;7.51;100.00;62775.84;4984305;28;20427;-76
2022/12/12 11:06:29;;;;;;;25.25;16.65;;;;;;;7.36;100.00;62754.78;4984735;28;20219;-76
2022/12/12 11:08:58;;;;;;;28.10;16.63;;;;;;;7.53;100.00;62772.84;4986654;28;20203;-75
2022/12/12 11:11:27;;;;;;;24.52;15.55;;;;;;;7.15;100.00;62735.66;4981260;28;20298;-75
2022/12/12 11:13:56;;;;;;;22.30;14.43;;;;;;;7.19;100.00;62742.84;4984189;28;20200;-74
2022/12/12 11:16:26;;;;;;;22.48;14.75;;;;;;;7.44;100.00;62763.56;4983815;28;20220;-75
2022/12/12 11:19:04;;;;;;;20.55;13.35;;;;;;;7.60;100.00;62785.16;4984931;28;20391;-76
2022/12/12 11:21:33;;;;;;;20.15;12.30;;;;;;;7.23;100.00;62744.41;4985131;28;20224;-77
2022/12/12 11:24:04;;;;;;;17.85;12.05;;;;;;;7.49;100.00;62773.78;4985573;28;20231;-75
2022/12/12 11:26:37;;;;;;;18.90;12.45;;;;;;;7.54;100.00;62775.91;4985276;28;20250;-75
2022/12/12 11:29:05;;;;;;;18.52;11.73;;;;;;;7.95;100.00;62820.78;4984233;28;20192;-77
2022/12/12 11:31:35;;;;;;;15.35;10.02;;;;;;;8.11;100.00;62835.25;4984962;28;20536;-74
2022/12/12 11:34:06;;;;;;;17.52;9.85;;;;;;;7.80;100.00;62805.78;4985764;28;20200;-77
2022/12/12 11:36:37;;;;;;;22.50;10.48;;;;;;;7.58;100.00;62774.97;5001306;28;20529;-75
2022/12/12 11:39:18;;;;;;;22.17;13.07;;;;;;;7.92;100.00;62815.66;4987154;28;20509;-76
2022/12/12 11:41:59;;;;;;;23.33;13.55;;;;;;;8.04;100.00;62830.06;4985257;28;20274;-75
2022/12/12 11:44:31;;;;;;;15.85;12.07;;;;;;;8.22;100.00;62848.66;4986613;28;20484;-74
2022/12/12 11:47:20;;;;;;;19.40;13.48;;;;;;;8.21;100.00;62843.06;4985025;28;20523;-74
2022/12/12 11:49:47;;;;;;;19.60;13.20;;;;;;;7.75;100.00;62797.56;4966998;28;20489;-75